Nearby METAR Reports

 

KOAK - Oakland, California, USA
Distance from station: SSW 6mi, 9km
Updated: Thu, 19-Oct-2017 2:53am PDT
Overcast
Overcast
 Wind from W
Wind: W 16 mph , 26 km/h
Temperature: 55°F , 13°C
Dew Point: 54°F , 12°C
Humidity: 94%
Barometer: 30.02 inHg , 1016.6 hPa
Clouds: Overcast
Visibility: 10 miles , 16 km
Cloud details: Overcast 1000 ft
2017/10/19 09:53 KOAK 190953Z 28014KT 10SM OVC010 13/12 A3002 RMK AO2 DZE41 SLP164 P0000 T01280117
KHWD - Hayward, California, USA
Distance from station: SSE 8mi, 12km
Updated: Thu, 19-Oct-2017 3:08am PDT
Overcast
Overcast
 Wind from WNW
Wind: WNW 8 mph , 13 km/h
Temperature: 55°F , 13°C
Dew Point: 50°F , 10°C
Humidity: 82%
Barometer: 30.01 inHg , 1016.3 hPa
Clouds: Overcast
Visibility: 10 miles , 16 km
Cloud details: Overcast 1100 ft
2017/10/19 10:08 KHWD 191008Z AUTO 29007KT 10SM OVC011 13/10 A3001 RMK AO2 CIG 006V013 T01280100
KSFO - San Francisco, California, USA
Distance from station: SW 15mi, 25km
Updated: Thu, 19-Oct-2017 2:56am PDT
Overcast
Overcast
 Wind from W
Wind: W 9 mph , 15 km/h
Temperature: 55°F , 13°C
Dew Point: 52°F , 11°C
Humidity: 88%
Barometer: 30.01 inHg , 1016.3 hPa
Clouds: Overcast
Visibility: 10 miles , 16 km
Cloud details: Few Clouds 500 ft
Mostly cloudy 1100 ft
Overcast 1400 ft
2017/10/19 09:56 KSFO 190956Z 27008KT 10SM FEW005 BKN011 OVC014 13/11 A3001 RMK AO2 SLP163 T01330106
 
KCCR - Concord, California, USA
Distance from station: NNE 17mi, 27km
Updated: Thu, 19-Oct-2017 3:12am PDT
Overcast
Overcast
 Wind from WSW
Wind: WSW 8 mph , 13 km/h
Temperature: 57°F , 14°C
Dew Point: 50°F , 10°C
Humidity: 77%
Barometer: 30.00 inHg , 1015.9 hPa
Clouds: Overcast
Visibility: 10 miles , 16 km
Cloud details: Overcast 1400 ft
2017/10/19 10:12 KCCR 191012Z AUTO 25007KT 10SM OVC014 14/10 A3000 RMK AO2 T01390100
KSQL - San Carlos Airpo, California, USA
Distance from station: SSW 18mi, 29km
Updated: Thu, 19-Oct-2017 3:35am PDT
Overcast
Overcast
 Wind from W
Wind: W 6 mph , 9 km/h
Temperature: 55°F , 13°C
Dew Point: 52°F , 11°C
Humidity: 88%
Barometer: 30.03 inHg , 1016.9 hPa
Clouds: Overcast
Visibility: 10 miles , 16 km
Cloud details: Overcast 1400 ft
2017/10/19 10:35 KSQL 191035Z AUTO 27005KT 10SM OVC014 13/11 A3003 RMK AO2
KLVK - Livermore, California, USA
Distance from station: ESE 20mi, 31km
Updated: Thu, 19-Oct-2017 3:07am PDT
Smoke, Overcast
Smoke, Overcast
 Wind from WSW
Wind: WSW 8 mph , 13 km/h
Temperature: 54°F , 12°C
Dew Point: 50°F , 10°C
Humidity: 88%
Barometer: 30.00 inHg , 1015.9 hPa
Summary: Smoke
Clouds: Overcast
Visibility: 10 miles , 16 km
Cloud details: Overcast 900 ft
2017/10/19 10:07 KLVK 191007Z AUTO 25007KT 10SM FU OVC009 12/10 A3000 RMK AO2 CIG 007V012 T01170100
 
KPAO - Palo Alto, California, USA
Distance from station: S 21mi, 34km
Updated: Wed, 18-Oct-2017 8:47pm PDT
NOT Current
Clear
Clear
 Wind from NNW
Wind: NNW 9 mph , 15 km/h
Clouds: Clear
Visibility: 10 miles , 16 km
2017/10/19 03:47 KPAO 190347Z 34008KT 10SM SKC 12/-- A3001 RMK LAST
KHAF - Half Moon Bay, California, USA
Distance from station: SW 25mi, 41km
Updated: Thu, 19-Oct-2017 3:35am PDT
Overcast
Overcast
 Wind from calm
Wind: Calm
Temperature: 54°F , 12°C
Dew Point: 54°F , 12°C
Humidity: 100%
Barometer: 29.99 inHg , 1015.6 hPa
Clouds: Overcast
Visibility: 10 miles , 16 km
Cloud details: Mostly cloudy 300 ft
Overcast 1400 ft
2017/10/19 10:35 KHAF 191035Z AUTO 00000KT 10SM BKN003 OVC014 12/12 A2999 RMK AO2
KNUQ - Moffett Nas/Mtn, California, USA
Distance from station: SSE 26mi, 42km
Updated: Thu, 19-Oct-2017 2:56am PDT
Smoke, Overcast
Smoke, Overcast
 Wind from calm
Wind: Calm
Temperature: 55°F , 13°C
Dew Point: 52°F , 11°C
Humidity: 88%
Barometer: 30.03 inHg , 1016.9 hPa
Summary: Smoke
Clouds: Overcast
Visibility: 10 miles , 16 km
Cloud details: Overcast 1300 ft
2017/10/19 09:56 KNUQ 190956Z AUTO 00000KT 10SM FU OVC013 13/11 A3003 RMK AO2 SLP170 T01280106
 
KAPC - Napa, California, USA
Distance from station: NNW 30mi, 49km
Updated: Thu, 19-Oct-2017 3:10am PDT
Smoke, Overcast
Smoke, Overcast
 Wind from W
Wind: W 13 mph , 20 km/h
Temperature: 55°F , 13°C
Dew Point: 52°F , 11°C
Humidity: 88%
Barometer: 30.00 inHg , 1015.9 hPa
Summary: Smoke
Clouds: Overcast
Visibility: 10 miles , 16 km
Cloud details: Overcast 1000 ft
2017/10/19 10:10 KAPC 191010Z 26011KT 10SM FU OVC010 13/11 A3000 RMK AO2 T01280106
KSJC - San Jose, California, USA
Distance from station: SSE 31mi, 50km
Updated: Thu, 19-Oct-2017 2:53am PDT
Overcast
Overcast
 Wind from NNW
Wind: NNW 5 mph , 7 km/h
Temperature: 55°F , 13°C
Dew Point: 52°F , 11°C
Humidity: 88%
Barometer: 30.02 inHg , 1016.6 hPa
Clouds: Overcast
Visibility: 10 miles , 16 km
Cloud details: Overcast 1100 ft
2017/10/19 09:53 KSJC 190953Z AUTO 34004KT 10SM OVC011 13/11 A3002 RMK AO2 SLP165 T01330111
KDVO - Novato/Gnoss Fld, California, USA
Distance from station: NW 34mi, 54km
Updated: Thu, 19-Oct-2017 3:35am PDT
Overcast
Overcast
 Wind from calm
Wind: Calm
Temperature: 55°F , 13°C
Dew Point: 50°F , 10°C
Humidity: 82%
Barometer: 30.00 inHg , 1015.9 hPa
Clouds: Overcast
Visibility: 10 miles , 16 km
Cloud details: Overcast 1500 ft
2017/10/19 10:35 KDVO 191035Z AUTO 00000KT 10SM OVC015 13/10 A3000 RMK AO2
 
KRHV - San Jose/Reid, California, USA
Distance from station: SSE 37mi, 59km
Updated: Wed, 18-Oct-2017 9:47pm PDT
NOT Current
Clear
Clear
 Wind from calm
Wind: Calm
Temperature: 55°F , 13°C
Dew Point: 50°F , 10°C
Humidity: 82%
Barometer: 30.05 inHg , 1017.6 hPa
Clouds: Clear
Visibility: 10 miles , 16 km
2017/10/19 04:47 KRHV 190447Z 00000KT 10SM SKC 13/10 A3005 RMK LAST
KSUU - Travis Afb/Fairf, California, USA
Distance from station: NNE 37mi, 59km
Updated: Thu, 19-Oct-2017 3:33am PDT
Overcast
Overcast
 Wind from WSW
Wind: WSW 17 mph , 28 km/h, Gust: 28 mph , 44 km/h
Temperature: 54°F , 12°C
Dew Point: 50°F , 10°C
Humidity: 88%
Barometer: 29.93 inHg , 1013.5 hPa
Clouds: Overcast
Visibility: 10 miles , 16 km
Cloud details: Overcast 1000 ft
2017/10/19 10:33 KSUU 191033Z AUTO 24015G24KT 10SM OVC010 12/10 A2993 RMK AO2 CIG 009 RWY03L CIG 009 RWY03R SLP142 $
KO69 - Petaluma, California, USA
Distance from station: NW 41mi, 66km
Updated: Thu, 19-Oct-2017 3:35am PDT
Overcast
Overcast
 Wind from W
Wind: W 10 mph , 17 km/h
Temperature: 55°F , 13°C
Dew Point: 52°F , 11°C
Humidity: 88%
Barometer: 29.99 inHg , 1015.6 hPa
Clouds: Overcast
Visibility: 10 miles , 16 km
Cloud details: Overcast 1000 ft
2017/10/19 10:35 KO69 191035Z AUTO 28009KT 10SM OVC010 13/11 A2999 RMK A01
 
KVCB - Vacaville, California, USA
Distance from station: NNE 44mi, 71km
Updated: Thu, 19-Oct-2017 2:53am PDT
Clear
Clear
 Wind from SSW
Wind: SSW 13 mph , 20 km/h, Gust: 21 mph , 33 km/h
Temperature: 55°F , 13°C
Dew Point: 46°F , 8°C
Humidity: 72%
Barometer: 29.92 inHg , 1013.2 hPa
Clouds: Clear
Visibility: 10 miles , 16 km
2017/10/19 09:53 KVCB 190953Z AUTO 20011G18KT 10SM CLR 13/08 A2992 RMK AO2 SLP131 T01330078